Accueil
METAR-TAF:

METAR-TAF

Aéroports :

Aéroport de Paris-Charles-de-Gaulle

Paris-Charles De Gaulle, France

latitude: 49-01N, longitude: 002-32E, altitude: 118 m

Observation

Le bulletin a été fait il y a 43 minutes, à 17:30 UTC
Vent 8 kt de ouest/sud-ouest
Température 9°C
Humidité 76%
Pression 1032 hPa
Visibilité 10 km ou plus
Nuages fragmentés à une hauteur de 3500 ft

METAR: LFPG 021730Z 25008KT 9999 BKN035 09/05 Q1032 NOSIG

Heure: 19:13 (18:13 UTC)

Prévision

Le bulletin a été fait il y a 1 heure et 13 minutes, à 17:00 UTC
Prévision valable du 02 à 18 UTC au 03 à 24 UTC
Vent 10 kt de ouest/sud-ouest
Visibilité 10 km ou plus
Nuages fragmentés à une hauteur de 2500 ft
Probabilité 30% :
Temporairement
du 03 à 09 UTC au 03 à 24 UTC
Nuages fragmentés à une hauteur de 1200 ft

TAF: LFPG 021700Z 0218/0324 25010KT 9999 BKN025 TX10/0315Z TN06/0306Z PROB30 TEMPO 0309/0324 BKN012

Observations et prévisions météorologiques de plus de 4000 aéroports (messages METAR et TAF).

Les stations disponibles sont représentées par des disques jaunes et rouges sur la carte.

Passer la souris dessus pour voir le nom de la station.

Cliquer dessus pour voir les observations et prévisions météorologiques.

Pour changer de carte: cliquez sur les boutons verts avec une croix noire pour zoomer, sur le bouton vert avec un tiret pour effectuer un zoom arrière, ou sur les flèches vertes pour les cartes adjacentes.


METAR-TAF: